WetterOnline ( https://www.wetteronline.de )

Wetter aktuell Gießen

Aktuelles Wetter: Gießen (195m)

6-stündlich | Neueste Meldungen
Ortszeit Temperatur Wetter
Sa, 25.01. 7:00 -1.6° C bedeckt
Sa, 25.01. 1:00 -1.0° C bedeckt
Fr, 24.01. 19:00 -0.3° C bedeckt
Fr, 24.01. 13:00 -0.2° C bedeckt
Fr, 24.01. 7:00 -0.6° C bedeckt
Fr, 24.01. 1:00 -0.3° C bedeckt
Do, 23.01. 19:00 -1.0° C wolkenlos
Do, 23.01. 13:00 1.4° C bewölkt
Ortszeit Temperatur Wetter
Sa, 25.01. 8:30 -1.5° C bedeckt
Sa, 25.01. 8:20 -1.5° C bedeckt
Sa, 25.01. 8:10 -1.4° C bedeckt
Sa, 25.01. 8:00 -1.5° C bedeckt
Sa, 25.01. 7:50 -1.5° C bedeckt
Sa, 25.01. 7:40 -1.5° C bedeckt
Sa, 25.01. 7:30 -1.5° C bedeckt
Sa, 25.01. 7:00 -1.6° C bedeckt
Ortszeit Relative Feuchte Sichtweite
Sa, 25.01. 7:00 91% 3.7 km
Sa, 25.01. 1:00 87% 5.0 km
Fr, 24.01. 19:00 83% 6 km
Fr, 24.01. 13:00 83% 5.0 km
Fr, 24.01. 7:00 86% 5.0 km
Fr, 24.01. 1:00 86% 8 km
Do, 23.01. 19:00 88% 12 km
Do, 23.01. 13:00 85% 29 km
Ortszeit Relative Feuchte Sichtweite
Sa, 25.01. 8:30 91% 3.2 km
Sa, 25.01. 8:20 91% -
Sa, 25.01. 8:10 91% -
Sa, 25.01. 8:00 91% 3.3 km
Sa, 25.01. 7:50 91% -
Sa, 25.01. 7:40 91% -
Sa, 25.01. 7:30 91% 3.1 km
Sa, 25.01. 7:00 91% 3.7 km
Ortszeit Niederschlagsmenge Niederschlagsart
Sa, 25.01. 7:00 0.0 l/m2 in 12 Std. -
Sa, 25.01. 1:00 0.0 l/m2 in 6 Std. -
Fr, 24.01. 19:00 0.0 l/m2 in 12 Std. -
Fr, 24.01. 13:00 0.0 l/m2 in 6 Std. -
Fr, 24.01. 7:00 0.0 l/m2 in 12 Std. -
Fr, 24.01. 1:00 0.0 l/m2 in 6 Std. -
Do, 23.01. 19:00 0.0 l/m2 in 12 Std. -
Do, 23.01. 13:00 0.0 l/m2 in 6 Std. -
Ortszeit Niederschlagsmenge Niederschlagsart
Sa, 25.01. 8:30 0.0 l/m2 in 1 Std. -
Sa, 25.01. 8:20 keine Meldung -
Sa, 25.01. 8:10 keine Meldung -
Sa, 25.01. 8:00 0.0 l/m2 in 1 Std. -
Sa, 25.01. 7:50 keine Meldung -
Sa, 25.01. 7:40 keine Meldung -
Sa, 25.01. 7:30 0.0 l/m2 in 1 Std. -
Sa, 25.01. 7:00 0.0 l/m2 in 1 Std. -
Ortszeit Stärke Spitze Richtung
km/h Bft. km/h Grad Sektor
Sa, 25.01. 7:00 4 1 14 170° S
Sa, 25.01. 1:00 7 2 14 220° SW
Fr, 24.01. 19:00 9 2 17 160° S
Fr, 24.01. 13:00 9 2 20 200° S
Fr, 24.01. 7:00 7 2 22 160° S
Fr, 24.01. 1:00 4 1 18 160° S
Do, 23.01. 19:00 7 2 14 50° NO
Do, 23.01. 13:00 6 1 9 60° NO
Ortszeit Stärke Spitze Richtung
km/h Bft. km/h Grad Sektor
Sa, 25.01. 8:30 7 2 11 180° S
Sa, 25.01. 8:20 7 2 - 180° S
Sa, 25.01. 8:10 4 1 - 180° S
Sa, 25.01. 8:00 7 2 11 200° S
Sa, 25.01. 7:50 7 2 - 200° S
Sa, 25.01. 7:40 7 2 - 190° S
Sa, 25.01. 7:30 4 1 11 190° S
Sa, 25.01. 7:00 4 1 14 170° S
Ortszeit Untergrenze Bedeckung Gattung
total tief tief mittel hoch
Sa, 25.01. 7:00 120 m 8/8 8/8 - - -
Sa, 25.01. 1:00 210 m 8/8 8/8 - - -
Fr, 24.01. 19:00 270 m 8/8 8/8 - - -
Fr, 24.01. 13:00 240 m 8/8 8/8 - - -
Fr, 24.01. 7:00 180 m 8/8 8/8 - - -
Fr, 24.01. 1:00 240 m 8/8 8/8 - - -
Do, 23.01. 19:00 - 0/8 0/8 - - -
Do, 23.01. 13:00 270 m 7/8 7/8 - - -
Ortszeit Bedeckungsgrad in Achtel und Wolkenuntergrenze
Sa, 25.01. 8:30 8(90m)
Sa, 25.01. 8:20 8(90m)
Sa, 25.01. 8:10 8(90m)
Sa, 25.01. 8:00 8(90m)
Sa, 25.01. 7:50 8(90m)
Sa, 25.01. 7:40 8(90m)
Sa, 25.01. 7:30 8(90m)
Sa, 25.01. 7:00 8(120m)
Ortszeit Luftdruck NN (hPa) Tendenz (hPa in 3 Std.)
Sa, 25.01. 7:00 1024 + 0,1
Sa, 25.01. 1:00 1024 - 0,7
Fr, 24.01. 19:00 1024 0,0
Fr, 24.01. 13:00 1026 - 0,6
Fr, 24.01. 7:00 1026 - 0,6
Fr, 24.01. 1:00 1028 - 0,8
Do, 23.01. 19:00 1029 - 1,6
Do, 23.01. 13:00 1033 - 1,5
Ortszeit Luftdruck NN (hPa) Tendenz (hPa in 3 Std.)
Sa, 25.01. 8:30 1024 + 0,5
Sa, 25.01. 8:20 1024 keine Meldung
Sa, 25.01. 8:10 1024 keine Meldung
Sa, 25.01. 8:00 1024 + 0,2
Sa, 25.01. 7:50 1024 keine Meldung
Sa, 25.01. 7:40 1024 keine Meldung
Sa, 25.01. 7:30 1024 + 0,2
Sa, 25.01. 7:00 1024 + 0,1
Ortszeit Schneehöhe (cm)
Sa, 25.01. 7:00 0
Sa, 25.01. 1:00 0
Fr, 24.01. 19:00 0
Fr, 24.01. 13:00 0
Fr, 24.01. 7:00 0
Fr, 24.01. 1:00 0
Do, 23.01. 19:00 0
Do, 23.01. 13:00 0
Ortszeit Schneehöhe (cm)
Sa, 25.01. 8:30 0
Sa, 25.01. 8:20 0
Sa, 25.01. 8:10 0
Sa, 25.01. 8:00 0
Sa, 25.01. 7:50 0
Sa, 25.01. 7:40 0
Sa, 25.01. 7:30 0
Sa, 25.01. 7:00 0
Link zu dieser Seite / Seite empfehlen

Das Wetter in ...